Time;durP1;ratioP1;P1;durP2;ratioP2;P2;SDS_P1;SDS_P2;PMS_P1;PMS_P2;Temp;Humidity;BMP_temperature;BMP_pressure;BME280_temperature;BME280_humidity;BME280_pressure;Samples;Min_cycle;Max_cycle;Signal;HPM_P1;HPM_P2
2023/05/21 00:00:52;;;;;;;6.38;3.03;;;16.60;82.90;;;;;;4953926;28;20034;-78
2023/05/21 00:03:18;;;;;;;6.57;3.13;;;16.50;83.00;;;;;;4966750;28;20062;-77
2023/05/21 00:05:48;;;;;;;7.45;3.45;;;16.50;83.60;;;;;;4954921;28;20185;-78
2023/05/21 00:08:14;;;;;;;4.55;2.20;;;16.50;83.40;;;;;;4966820;28;20024;-77
2023/05/21 00:10:40;;;;;;;7.70;2.95;;;16.50;83.80;;;;;;4973141;28;20030;-80
2023/05/21 00:13:07;;;;;;;5.55;2.78;;;16.50;83.80;;;;;;4960123;28;20039;-78
2023/05/21 00:15:33;;;;;;;6.75;3.47;;;16.50;84.00;;;;;;4960726;28;20051;-77
2023/05/21 00:17:58;;;;;;;8.55;2.72;;;16.50;83.90;;;;;;4966773;28;20148;-77
2023/05/21 00:20:24;;;;;;;6.43;2.78;;;16.50;84.40;;;;;;4936425;29;20035;-78
2023/05/21 00:22:50;;;;;;;7.65;2.22;;;16.40;84.10;;;;;;4959298;28;20118;-77
2023/05/21 00:25:16;;;;;;;7.70;2.20;;;16.50;85.00;;;;;;4960560;28;20023;-77
2023/05/21 00:27:41;;;;;;;8.73;3.08;;;16.50;85.00;;;;;;4964115;28;20034;-77
2023/05/21 00:30:07;;;;;;;6.32;3.22;;;16.50;84.60;;;;;;4943257;29;20019;-76
2023/05/21 00:32:33;;;;;;;7.13;3.42;;;16.50;84.60;;;;;;4939044;29;20378;-78
2023/05/21 00:34:58;;;;;;;7.47;3.05;;;16.50;84.60;;;;;;4965713;28;20460;-77
2023/05/21 00:37:24;;;;;;;9.95;2.95;;;16.50;84.50;;;;;;4964441;28;20098;-78
2023/05/21 00:39:50;;;;;;;8.15;2.97;;;16.60;84.70;;;;;;4945611;28;20133;-78
2023/05/21 00:42:16;;;;;;;8.60;2.63;;;16.60;85.00;;;;;;4971728;28;20114;-78
2023/05/21 00:44:45;;;;;;;6.43;3.17;;;16.50;85.10;;;;;;4960062;28;20027;-77
2023/05/21 00:47:12;;;;;;;7.28;3.95;;;16.50;84.90;;;;;;4948315;29;20363;-78
2023/05/21 00:49:38;;;;;;;6.70;3.35;;;16.50;85.00;;;;;;4966015;28;20053;-77
2023/05/21 00:52:06;;;;;;;7.95;2.67;;;16.50;85.20;;;;;;4953531;28;20490;-78
2023/05/21 00:54:31;;;;;;;4.90;2.75;;;16.50;85.20;;;;;;4954772;28;20468;-79
2023/05/21 00:56:58;;;;;;;5.30;2.22;;;16.50;85.00;;;;;;4973525;28;20026;-77
2023/05/21 00:59:25;;;;;;;7.38;3.58;;;16.50;85.30;;;;;;4971838;28;20139;-78
2023/05/21 01:01:54;;;;;;;8.90;3.25;;;16.50;85.30;;;;;;4973310;28;20023;-78
2023/05/21 01:04:25;;;;;;;6.15;2.88;;;16.50;85.70;;;;;;4959777;28;20027;-77
2023/05/21 01:06:52;;;;;;;;;;;16.40;85.60;;;;;;4973595;28;20671;-78
2023/05/21 01:09:18;;;;;;;7.60;3.00;;;16.50;85.80;;;;;;4971595;28;19928;-79
2023/05/21 01:11:47;;;;;;;6.65;3.03;;;16.40;85.90;;;;;;4961415;28;20033;-78
2023/05/21 01:14:15;;;;;;;6.38;3.42;;;16.40;86.00;;;;;;4957713;28;20031;-78
2023/05/21 01:16:45;;;;;;;6.93;3.47;;;16.40;86.10;;;;;;4961856;28;20082;-78
2023/05/21 01:19:14;;;;;;;7.10;2.95;;;16.40;86.20;;;;;;4955994;28;20091;-77
2023/05/21 01:21:45;;;;;;;4.53;3.13;;;16.40;86.30;;;;;;4962643;28;20029;-78
2023/05/21 01:24:11;;;;;;;5.30;2.53;;;16.40;86.30;;;;;;4971684;28;20110;-77
2023/05/21 01:26:37;;;;;;;5.78;2.83;;;16.40;86.40;;;;;;4972006;28;20110;-78
2023/05/21 01:29:06;;;;;;;5.40;2.55;;;16.40;86.50;;;;;;4972453;28;20026;-77
2023/05/21 01:31:55;;;;;;;9.35;3.40;;;16.40;86.50;;;;;;4961245;28;20521;-77
2023/05/21 01:34:25;;;;;;;7.93;3.13;;;16.40;86.70;;;;;;4931791;29;20035;-77
2023/05/21 01:37:20;;;;;;;7.40;3.33;;;16.40;86.90;;;;;;4936704;29;20114;-78
2023/05/21 01:39:58;;;;;;;6.60;2.42;;;16.30;87.00;;;;;;4945019;29;20026;-78
2023/05/21 01:42:25;;;;;;;8.13;2.33;;;16.30;87.50;;;;;;4919240;29;20313;-78
2023/05/21 01:44:54;;;;;;;6.43;3.72;;;16.30;87.50;;;;;;4932778;29;20028;-77
2023/05/21 01:47:23;;;;;;;8.70;4.70;;;16.30;87.50;;;;;;4932684;29;20034;-78
2023/05/21 01:49:50;;;;;;;7.30;4.30;;;16.30;87.40;;;;;;4946567;29;20475;-78
2023/05/21 01:52:16;;;;;;;6.18;3.95;;;16.30;87.40;;;;;;4951641;29;20050;-77
2023/05/21 01:54:41;;;;;;;7.57;3.55;;;16.30;87.40;;;;;;4942581;29;20036;-78
2023/05/21 01:57:07;;;;;;;7.28;3.90;;;16.30;87.50;;;;;;4951540;29;20059;-78
2023/05/21 01:59:35;;;;;;;6.03;3.25;;;16.30;87.70;;;;;;4938456;29;20023;-77
2023/05/21 02:02:01;;;;;;;8.15;4.57;;;16.30;87.90;;;;;;4935869;29;20036;-79
2023/05/21 02:04:26;;;;;;;7.82;3.35;;;16.30;88.10;;;;;;4952201;29;20155;-77
2023/05/21 02:06:53;;;;;;;6.40;3.10;;;16.20;88.00;;;;;;4952142;29;20074;-76
2023/05/21 02:09:19;;;;;;;6.97;4.30;;;16.20;88.10;;;;;;4939302;28;20039;-79
2023/05/21 02:11:45;;;;;;;9.55;4.90;;;16.20;88.30;;;;;;4951562;29;20039;-79
2023/05/21 02:14:12;;;;;;;6.57;3.47;;;16.20;88.40;;;;;;4947002;29;20474;-79
2023/05/21 02:16:38;;;;;;;7.53;3.67;;;16.20;88.50;;;;;;4931950;29;20498;-78
2023/05/21 02:19:05;;;;;;;5.80;3.42;;;16.20;88.60;;;;;;4933512;29;20055;-77
2023/05/21 02:21:31;;;;;;;6.60;3.50;;;16.20;88.50;;;;;;4929069;29;20102;-77
2023/05/21 02:23:56;;;;;;;6.38;3.83;;;16.20;88.70;;;;;;4915359;29;20055;-78
2023/05/21 02:26:22;;;;;;;5.03;2.35;;;16.20;88.90;;;;;;4948714;29;20570;-78
2023/05/21 02:28:48;;;;;;;8.00;3.70;;;16.20;89.00;;;;;;4934540;29;20015;-80
2023/05/21 02:31:14;;;;;;;5.95;3.20;;;16.10;89.00;;;;;;4934766;29;20028;-79
2023/05/21 02:33:40;;;;;;;10.25;3.53;;;16.10;89.10;;;;;;4947112;29;20051;-78
2023/05/21 02:36:11;;;;;;;7.05;4.05;;;16.10;89.20;;;;;;4952773;28;20054;-78
2023/05/21 02:38:39;;;;;;;8.60;3.92;;;16.10;89.30;;;;;;4926987;28;20058;-79
2023/05/21 02:41:05;;;;;;;8.52;5.13;;;16.10;89.40;;;;;;4951012;28;21140;-77
2023/05/21 02:43:31;;;;;;;8.18;4.70;;;16.10;89.60;;;;;;4962396;28;20114;-78
2023/05/21 02:45:56;;;;;;;7.97;4.72;;;16.10;89.80;;;;;;4957885;28;20030;-77
2023/05/21 02:48:22;;;;;;;8.30;4.88;;;16.10;90.00;;;;;;4959227;28;20102;-78
2023/05/21 02:50:48;;;;;;;7.60;5.22;;;16.10;90.10;;;;;;4964384;28;20155;-79
2023/05/21 02:53:13;;;;;;;7.57;4.47;;;16.10;90.00;;;;;;4951189;28;20035;-79
2023/05/21 02:55:40;;;;;;;7.50;5.35;;;16.10;89.80;;;;;;4963882;28;20039;-78
2023/05/21 02:58:06;;;;;;;7.40;4.57;;;16.10;90.10;;;;;;4962715;28;20130;-79
2023/05/21 03:00:32;;;;;;;7.10;4.47;;;16.10;90.10;;;;;;4948064;29;20118;-78
2023/05/21 03:02:57;;;;;;;8.10;4.60;;;16.10;90.10;;;;;;4964608;28;20042;-79
2023/05/21 03:05:23;;;;;;;10.25;5.40;;;16.10;90.00;;;;;;4972129;28;20027;-79
2023/05/21 03:07:49;;;;;;;7.22;4.38;;;16.10;90.10;;;;;;4960925;28;20482;-78
2023/05/21 03:10:14;;;;;;;9.30;4.40;;;16.00;90.20;;;;;;4952066;28;20046;-78
2023/05/21 03:12:40;;;;;;;6.95;3.65;;;16.10;90.20;;;;;;4962968;28;20038;-79
2023/05/21 03:15:06;;;;;;;6.25;3.55;;;16.10;90.20;;;;;;4958150;28;20033;-78
2023/05/21 03:17:35;;;;;;;8.25;3.95;;;16.10;90.20;;;;;;4959762;28;20047;-77
2023/05/21 03:20:00;;;;;;;8.88;4.47;;;16.10;90.20;;;;;;4964277;28;20486;-77
2023/05/21 03:22:26;;;;;;;11.80;4.05;;;16.00;90.30;;;;;;4965827;28;20027;-77
2023/05/21 03:24:52;;;;;;;8.27;4.45;;;16.10;90.30;;;;;;4954603;28;20031;-78
2023/05/21 03:27:17;;;;;;;7.82;4.30;;;16.10;90.20;;;;;;4972606;28;20478;-77
2023/05/21 03:29:44;;;;;;;6.90;4.20;;;16.10;90.30;;;;;;4963631;28;20102;-79
2023/05/21 03:32:11;;;;;;;8.43;3.83;;;16.00;90.40;;;;;;4967541;28;20194;-78
2023/05/21 03:34:37;;;;;;;7.40;4.80;;;16.00;90.50;;;;;;4965488;28;20046;-78
2023/05/21 03:37:02;;;;;;;11.02;5.38;;;16.10;90.60;;;;;;4973942;28;20066;-77
2023/05/21 03:39:28;;;;;;;9.40;4.60;;;16.00;90.50;;;;;;4963312;28;20034;-78
2023/05/21 03:41:54;;;;;;;6.85;2.40;;;16.00;90.50;;;;;;4971795;28;20468;-77
2023/05/21 03:44:19;;;;;;;7.03;4.75;;;16.00;90.50;;;;;;4974730;28;20062;-78
2023/05/21 03:46:45;;;;;;;6.10;4.15;;;16.00;90.70;;;;;;4957070;28;20078;-78
2023/05/21 03:49:10;;;;;;;10.63;5.10;;;16.00;90.60;;;;;;4954778;28;20505;-78
2023/05/21 03:51:37;;;;;;;8.40;6.00;;;16.00;90.70;;;;;;4954341;28;20371;-77
2023/05/21 03:54:02;;;;;;;8.50;4.38;;;16.00;90.90;;;;;;4964649;28;20379;-77
2023/05/21 03:56:28;;;;;;;7.28;3.75;;;16.00;90.80;;;;;;4956791;28;20059;-76
2023/05/21 03:58:53;;;;;;;9.32;5.35;;;16.10;90.70;;;;;;4963927;28;20019;-77
2023/05/21 04:01:19;;;;;;;6.18;3.45;;;16.00;90.80;;;;;;4959607;28;20120;-77
2023/05/21 04:03:45;;;;;;;6.60;3.20;;;16.00;90.80;;;;;;4963391;28;20031;-77
2023/05/21 04:06:10;;;;;;;9.38;5.15;;;16.00;90.70;;;;;;4967190;28;20027;-77
2023/05/21 04:08:36;;;;;;;5.45;2.65;;;16.00;90.90;;;;;;4963509;28;20034;-77
2023/05/21 04:11:02;;;;;;;9.07;4.40;;;16.00;90.80;;;;;;4957050;28;20034;-77
2023/05/21 04:13:28;;;;;;;6.97;4.35;;;16.00;90.70;;;;;;4954188;28;20031;-78
2023/05/21 04:15:53;;;;;;;15.65;3.40;;;16.00;91.00;;;;;;4969161;28;20426;-79
2023/05/21 04:18:22;;;;;;;8.23;5.10;;;16.00;90.90;;;;;;4964080;28;20037;-78
2023/05/21 04:20:48;;;;;;;8.85;3.45;;;16.10;90.90;;;;;;4962013;28;20436;-77
2023/05/21 04:23:14;;;;;;;8.05;4.95;;;16.10;90.90;;;;;;4962062;28;20171;-77
2023/05/21 04:25:40;;;;;;;11.18;2.30;;;16.00;91.20;;;;;;4967019;28;20130;-78
2023/05/21 04:28:06;;;;;;;8.60;4.45;;;16.10;90.90;;;;;;4964341;28;20027;-76
2023/05/21 04:30:34;;;;;;;10.57;5.68;;;16.10;91.10;;;;;;4959787;28;20037;-78
2023/05/21 04:33:01;;;;;;;7.00;4.45;;;16.10;91.20;;;;;;4961867;28;20043;-77
2023/05/21 04:35:27;;;;;;;7.95;5.28;;;16.10;91.30;;;;;;4971120;28;20031;-77
2023/05/21 04:37:53;;;;;;;9.52;4.90;;;16.10;91.20;;;;;;4961755;28;20082;-78
2023/05/21 04:40:23;;;;;;;6.60;3.13;;;16.20;91.20;;;;;;4953804;28;20074;-77
2023/05/21 04:42:49;;;;;;;7.00;3.57;;;16.10;91.10;;;;;;4972838;28;20022;-76
2023/05/21 04:45:16;;;;;;;8.93;5.20;;;16.10;91.20;;;;;;4972252;28;20050;-77
2023/05/21 04:47:42;;;;;;;8.43;5.95;;;16.10;91.50;;;;;;4972582;28;20023;-77
2023/05/21 04:50:09;;;;;;;9.52;5.00;;;16.10;91.50;;;;;;4960086;28;20033;-78
2023/05/21 04:52:35;;;;;;;9.07;3.83;;;16.10;91.50;;;;;;4955993;28;20035;-77
2023/05/21 04:55:01;;;;;;;8.20;5.13;;;16.20;91.30;;;;;;4956224;28;20026;-77
2023/05/21 04:57:28;;;;;;;8.10;6.22;;;16.10;91.70;;;;;;4972268;28;20496;-77
2023/05/21 04:59:55;;;;;;;9.60;5.90;;;16.10;91.90;;;;;;4972078;28;20023;-77
2023/05/21 05:02:20;;;;;;;12.98;3.22;;;16.10;91.80;;;;;;4971953;28;20022;-77
2023/05/21 05:04:49;;;;;;;7.70;5.38;;;16.10;91.50;;;;;;4968952;28;20027;-78
2023/05/21 05:07:15;;;;;;;8.43;4.68;;;16.10;91.80;;;;;;4965642;28;20027;-77
2023/05/21 05:09:41;;;;;;;7.95;5.03;;;16.10;91.80;;;;;;4955313;28;20031;-77
2023/05/21 05:12:07;;;;;;;9.85;3.40;;;16.10;91.90;;;;;;4953671;28;20442;-76
2023/05/21 05:14:32;;;;;;;7.72;4.05;;;16.10;91.90;;;;;;4966810;28;20035;-77
2023/05/21 05:16:58;;;;;;;10.10;3.80;;;16.10;91.90;;;;;;4954640;28;20034;-77
2023/05/21 05:19:24;;;;;;;10.68;4.68;;;16.10;91.90;;;;;;4941977;28;20151;-77
2023/05/21 05:21:50;;;;;;;9.57;4.22;;;16.10;91.90;;;;;;4966609;28;20134;-77
2023/05/21 05:24:16;;;;;;;19.35;3.85;;;16.10;91.90;;;;;;4960019;28;20031;-78
2023/05/21 05:26:41;;;;;;;7.03;4.25;;;16.10;91.90;;;;;;4960692;28;20027;-78
2023/05/21 05:29:07;;;;;;;10.38;3.35;;;16.10;92.20;;;;;;4969955;28;20552;-78
2023/05/21 05:31:32;;;;;;;9.18;4.70;;;16.10;92.10;;;;;;4954783;28;20037;-78
2023/05/21 05:33:58;;;;;;;8.73;5.22;;;16.20;92.20;;;;;;4969917;28;20054;-78
2023/05/21 05:36:23;;;;;;;9.65;5.05;;;16.20;92.30;;;;;;4952697;28;20039;-76
2023/05/21 05:38:49;;;;;;;7.03;3.50;;;16.20;92.20;;;;;;4968341;28;20074;-77
2023/05/21 05:41:14;;;;;;;9.60;4.40;;;16.30;91.90;;;;;;4959633;28;20102;-76
2023/05/21 05:43:40;;;;;;;10.45;6.70;;;16.40;92.00;;;;;;4959586;28;20031;-77
2023/05/21 05:46:06;;;;;;;8.38;5.90;;;16.40;92.00;;;;;;4951450;28;20047;-78
2023/05/21 05:48:31;;;;;;;10.50;6.00;;;16.40;91.80;;;;;;4952375;28;20453;-77
2023/05/21 05:50:57;;;;;;;9.02;4.47;;;16.40;92.20;;;;;;4952302;28;20476;-78
2023/05/21 05:53:23;;;;;;;8.07;4.95;;;16.40;92.20;;;;;;4952142;28;20047;-78
2023/05/21 05:55:48;;;;;;;8.93;3.88;;;16.40;92.00;;;;;;4952391;28;20078;-77
2023/05/21 05:58:14;;;;;;;11.68;6.75;;;16.40;92.10;;;;;;4951762;28;20066;-77
2023/05/21 06:00:40;;;;;;;9.73;6.00;;;16.40;92.10;;;;;;4934489;29;20050;-77
2023/05/21 06:03:06;;;;;;;6.95;3.85;;;16.40;92.20;;;;;;4968907;28;20066;-77
2023/05/21 06:05:31;;;;;;;8.65;5.53;;;16.40;92.20;;;;;;4952148;28;20024;-77
2023/05/21 06:07:57;;;;;;;9.77;6.80;;;16.40;92.10;;;;;;4951874;28;20409;-74
2023/05/21 06:10:23;;;;;;;11.43;4.22;;;16.40;92.30;;;;;;4957295;28;20035;-74
2023/05/21 06:12:48;;;;;;;8.93;3.78;;;16.40;92.20;;;;;;4958485;28;20129;-75
2023/05/21 06:15:15;;;;;;;7.90;4.72;;;16.40;92.20;;;;;;4966719;28;20030;-75
2023/05/21 06:17:41;;;;;;;8.60;4.93;;;16.50;92.20;;;;;;4949835;28;20113;-75
2023/05/21 06:20:08;;;;;;;9.93;4.60;;;16.50;92.20;;;;;;4967013;28;20775;-75
2023/05/21 06:22:33;;;;;;;8.27;3.55;;;16.60;92.30;;;;;;4968335;28;20129;-75
2023/05/21 06:24:59;;;;;;;11.77;4.72;;;16.60;92.10;;;;;;4970459;28;20162;-75
2023/05/21 06:27:25;;;;;;;10.88;3.60;;;16.70;91.90;;;;;;4949822;28;20051;-76
2023/05/21 06:29:50;;;;;;;9.20;3.83;;;16.80;91.60;;;;;;4957116;28;20038;-75
2023/05/21 06:32:16;;;;;;;12.55;7.03;;;16.90;91.50;;;;;;4964643;28;20402;-75
2023/05/21 06:34:41;;;;;;;9.68;6.28;;;16.90;91.90;;;;;;4955746;28;20023;-76
2023/05/21 06:37:07;;;;;;;8.63;4.20;;;17.00;91.80;;;;;;4952790;28;20607;-75
2023/05/21 06:39:32;;;;;;;9.88;4.03;;;17.10;91.60;;;;;;4953678;28;20496;-75
2023/05/21 06:41:58;;;;;;;9.73;4.05;;;17.20;91.40;;;;;;4951056;28;20032;-75
2023/05/21 06:44:24;;;;;;;8.40;5.22;;;17.20;91.20;;;;;;4964227;28;20034;-76
2023/05/21 06:46:49;;;;;;;7.80;4.07;;;17.20;91.70;;;;;;4959483;28;20023;-75
2023/05/21 06:49:15;;;;;;;8.30;4.68;;;17.30;91.30;;;;;;4944125;28;20020;-75
2023/05/21 06:51:40;;;;;;;8.55;4.95;;;17.50;91.40;;;;;;4942024;28;20085;-75
2023/05/21 06:54:06;;;;;;;9.40;6.47;;;17.70;91.30;;;;;;4955747;28;20043;-76
2023/05/21 06:56:32;;;;;;;10.05;4.78;;;17.90;90.50;;;;;;4968117;28;20030;-75
2023/05/21 06:58:58;;;;;;;11.20;4.65;;;17.90;90.40;;;;;;4971638;28;20022;-76
2023/05/21 07:01:23;;;;;;;8.93;4.65;;;18.10;90.30;;;;;;4970410;28;20034;-76
2023/05/21 07:03:49;;;;;;;9.05;4.65;;;18.20;90.20;;;;;;4969929;28;20034;-75
2023/05/21 07:06:15;;;;;;;9.23;4.80;;;18.30;89.90;;;;;;4952519;28;20021;-76
2023/05/21 07:08:41;;;;;;;9.35;5.78;;;18.50;90.10;;;;;;4972083;28;20018;-75
2023/05/21 07:11:07;;;;;;;9.65;5.10;;;18.60;89.40;;;;;;4973649;28;20019;-76
2023/05/21 07:13:34;;;;;;;8.50;4.43;;;18.80;88.50;;;;;;4971457;28;20039;-76
2023/05/21 07:16:00;;;;;;;13.80;3.92;;;19.00;88.50;;;;;;4972325;28;20054;-76
2023/05/21 07:18:26;;;;;;;9.25;4.82;;;19.20;86.60;;;;;;4970055;28;20413;-76
2023/05/21 07:20:52;;;;;;;8.02;4.28;;;19.30;86.50;;;;;;4946163;29;20071;-76
2023/05/21 07:23:18;;;;;;;9.38;5.30;;;19.40;85.60;;;;;;4937808;28;20474;-77
2023/05/21 07:25:43;;;;;;;12.48;5.25;;;19.40;86.00;;;;;;4954601;28;20078;-76
2023/05/21 07:28:09;;;;;;;7.65;3.33;;;19.50;85.40;;;;;;4967241;28;20030;-76
2023/05/21 07:30:35;;;;;;;13.82;4.63;;;19.50;85.00;;;;;;4964117;28;20027;-76
2023/05/21 07:33:00;;;;;;;10.15;4.97;;;19.50;85.00;;;;;;4959533;28;20031;-75
2023/05/21 07:35:26;;;;;;;13.20;6.90;;;19.50;85.60;;;;;;4964383;28;20438;-77
2023/05/21 07:37:52;;;;;;;14.88;5.30;;;19.80;85.20;;;;;;4950561;29;20129;-77
2023/05/21 07:40:17;;;;;;;10.13;4.10;;;19.80;85.00;;;;;;4951728;29;20421;-75
2023/05/21 07:42:43;;;;;;;13.68;5.15;;;20.00;84.20;;;;;;4951884;29;20034;-75
2023/05/21 07:45:09;;;;;;;16.05;5.05;;;20.10;83.80;;;;;;4953055;29;20081;-75
2023/05/21 07:47:34;;;;;;;10.70;5.82;;;20.10;84.10;;;;;;4937699;29;20028;-74
2023/05/21 07:50:00;;;;;;;15.00;8.35;;;20.20;83.60;;;;;;4940226;29;20487;-74
2023/05/21 07:52:25;;;;;;;11.05;7.20;;;20.20;83.70;;;;;;4934102;29;20039;-74
2023/05/21 07:54:51;;;;;;;10.05;6.22;;;20.20;84.10;;;;;;4932849;29;20491;-74
2023/05/21 07:57:16;;;;;;;14.05;7.07;;;20.20;83.90;;;;;;4934161;29;20023;-75
2023/05/21 07:59:42;;;;;;;11.95;6.43;;;20.10;84.10;;;;;;4934311;29;20035;-75
2023/05/21 08:02:08;;;;;;;12.38;8.25;;;20.20;84.10;;;;;;4941739;29;20454;-74
2023/05/21 08:04:33;;;;;;;10.30;7.05;;;20.20;84.20;;;;;;4934005;29;20482;-75
2023/05/21 08:06:59;;;;;;;11.45;8.43;;;20.20;84.20;;;;;;4934439;29;20123;-74
2023/05/21 08:09:24;;;;;;;7.68;4.13;;;20.20;84.80;;;;;;4933746;29;20087;-73
2023/05/21 08:11:50;;;;;;;9.00;5.72;;;20.40;84.10;;;;;;4933348;29;20110;-74
2023/05/21 08:14:16;;;;;;;9.07;4.90;;;20.60;83.40;;;;;;4942439;29;20439;-74
2023/05/21 08:16:42;;;;;;;11.20;7.00;;;20.80;82.80;;;;;;4940344;29;20119;-74
2023/05/21 08:19:07;;;;;;;7.93;3.95;;;20.80;82.60;;;;;;4952593;29;20437;-74
2023/05/21 08:21:33;;;;;;;12.13;7.32;;;20.80;82.60;;;;;;4938965;29;20600;-74
2023/05/21 08:23:59;;;;;;;8.13;5.15;;;20.90;82.80;;;;;;4933947;29;20027;-74
2023/05/21 08:26:25;;;;;;;11.98;7.18;;;21.00;83.00;;;;;;4933866;29;20474;-73
2023/05/21 08:28:50;;;;;;;12.15;6.40;;;21.00;82.60;;;;;;4941584;29;20109;-74
2023/05/21 08:31:19;;;;;;;11.50;7.45;;;21.10;82.20;;;;;;4952753;29;20051;-73
2023/05/21 08:33:51;;;;;;;12.25;6.18;;;21.30;82.00;;;;;;4952742;29;20049;-73
2023/05/21 08:36:20;;;;;;;7.60;4.38;;;21.30;81.90;;;;;;4956476;28;20105;-74
2023/05/21 08:38:45;;;;;;;8.15;5.75;;;21.30;81.80;;;;;;4953084;28;20421;-73
2023/05/21 08:41:12;;;;;;;11.65;8.18;;;21.40;81.50;;;;;;4952414;28;20023;-74
2023/05/21 08:43:38;;;;;;;9.32;4.15;;;21.40;81.20;;;;;;4952377;28;21039;-74
2023/05/21 08:46:08;;;;;;;10.07;5.18;;;21.60;81.90;;;;;;4952842;28;20027;-73
2023/05/21 08:48:35;;;;;;;8.55;4.18;;;22.00;81.20;;;;;;4953969;28;20097;-74
2023/05/21 08:51:01;;;;;;;9.38;5.30;;;22.40;79.90;;;;;;4965645;28;20035;-74
2023/05/21 08:53:27;;;;;;;11.02;7.05;;;22.50;79.50;;;;;;4964534;28;20035;-74
2023/05/21 08:55:54;;;;;;;11.63;6.10;;;22.50;78.60;;;;;;4971425;28;20422;-74
2023/05/21 08:58:21;;;;;;;8.77;4.28;;;22.60;79.10;;;;;;4971416;28;20439;-74
2023/05/21 09:00:46;;;;;;;10.02;6.32;;;22.60;79.30;;;;;;4969788;28;20106;-74
2023/05/21 09:03:14;;;;;;;8.65;4.60;;;22.90;78.80;;;;;;4968236;28;20111;-74
2023/05/21 09:05:41;;;;;;;11.32;6.00;;;23.10;78.10;;;;;;4959459;28;20027;-74
2023/05/21 09:08:33;;;;;;;11.88;7.30;;;23.20;77.70;;;;;;4971620;28;20118;-74
2023/05/21 09:11:01;;;;;;;9.00;5.60;;;23.30;76.50;;;;;;4970218;28;20026;-73
2023/05/21 09:13:30;;;;;;;9.30;5.72;;;23.20;76.90;;;;;;4969243;28;20117;-73
2023/05/21 09:15:56;;;;;;;8.73;5.32;;;23.20;77.90;;;;;;4965750;28;20022;-75
2023/05/21 09:18:21;;;;;;;10.50;7.03;;;23.30;77.40;;;;;;4969600;28;20035;-73
2023/05/21 09:20:47;;;;;;;8.90;5.88;;;23.10;77.10;;;;;;4966290;28;20154;-74
2023/05/21 09:23:16;;;;;;;9.88;7.47;;;23.10;77.40;;;;;;4971027;28;20098;-75
2023/05/21 09:25:46;;;;;;;11.13;6.63;;;23.10;77.30;;;;;;4970800;28;20059;-75
2023/05/21 09:28:13;;;;;;;;;;;23.10;77.90;;;;;;4953713;28;20284;-75
2023/05/21 09:30:47;;;;;;;7.82;4.30;;;23.20;77.30;;;;;;4971087;28;20357;-74
2023/05/21 09:33:25;;;;;;;7.30;4.28;;;23.40;78.10;;;;;;4966059;28;20505;-74
2023/05/21 09:35:50;;;;;;;10.40;7.18;;;23.60;77.80;;;;;;4969760;28;20054;-74
2023/05/21 09:38:16;;;;;;;10.02;7.57;;;23.60;76.10;;;;;;4969934;28;20030;-75
2023/05/21 09:40:47;;;;;;;8.85;4.70;;;23.50;76.20;;;;;;4959344;28;20031;-78
2023/05/21 09:43:14;;;;;;;9.23;6.50;;;23.60;77.70;;;;;;4960964;28;20354;-74
2023/05/21 09:45:54;;;;;;;8.70;4.75;;;23.60;77.50;;;;;;4958329;28;20023;-73
2023/05/21 09:48:37;;;;;;;8.63;5.78;;;23.80;77.80;;;;;;4960788;28;20034;-74
2023/05/21 09:51:15;;;;;;;8.75;4.82;;;23.90;76.70;;;;;;4952655;28;20027;-74
2023/05/21 09:53:48;;;;;;;10.13;6.90;;;24.00;77.80;;;;;;4965177;28;20038;-74
2023/05/21 09:56:14;;;;;;;8.05;4.60;;;24.10;75.80;;;;;;4969471;28;20089;-74
2023/05/21 09:58:39;;;;;;;9.65;5.13;;;24.10;76.90;;;;;;4969964;28;20425;-74
2023/05/21 10:01:07;;;;;;;13.40;8.50;;;24.20;76.60;;;;;;4952599;28;20046;-75
2023/05/21 10:03:37;;;;;;;10.77;7.18;;;24.30;73.90;;;;;;4969362;28;20027;-76
2023/05/21 10:06:06;;;;;;;11.70;7.22;;;24.40;75.60;;;;;;4959063;28;20041;-75
2023/05/21 10:08:35;;;;;;;13.18;7.28;;;24.40;75.80;;;;;;4967766;28;20031;-75
2023/05/21 10:11:04;;;;;;;19.20;12.00;;;24.50;74.90;;;;;;4970103;28;20023;-74
2023/05/21 10:13:30;;;;;;;12.82;9.02;;;24.50;74.40;;;;;;4941942;28;20908;-75
2023/05/21 10:16:02;;;;;;;10.93;6.57;;;24.70;75.50;;;;;;4960187;28;20031;-74
2023/05/21 10:18:29;;;;;;;10.43;6.95;;;24.90;75.20;;;;;;4959096;28;20018;-74
2023/05/21 10:20:55;;;;;;;9.65;6.68;;;24.90;74.10;;;;;;4969546;28;20031;-75
2023/05/21 10:23:23;;;;;;;8.93;5.63;;;25.10;74.50;;;;;;4968797;28;20054;-75
2023/05/21 10:25:51;;;;;;;9.90;6.88;;;25.20;73.90;;;;;;4960949;28;20023;-76
2023/05/21 10:28:17;;;;;;;8.77;5.75;;;25.50;73.70;;;;;;4968814;28;20397;-74
2023/05/21 10:30:45;;;;;;;12.45;8.43;;;25.50;74.00;;;;;;4937813;28;20015;-76
2023/05/21 10:33:15;;;;;;;11.18;7.82;;;25.50;72.10;;;;;;4964103;28;20133;-75
2023/05/21 10:35:43;;;;;;;16.33;11.48;;;25.70;74.00;;;;;;4967785;28;20496;-75
2023/05/21 10:38:10;;;;;;;9.30;6.50;;;25.70;71.50;;;;;;4969657;28;20027;-75
2023/05/21 10:40:36;;;;;;;8.55;6.15;;;25.70;73.00;;;;;;4965665;28;20042;-76
2023/05/21 10:43:19;;;;;;;7.82;5.22;;;25.60;72.80;;;;;;4968733;28;20038;-75
2023/05/21 10:46:11;;;;;;;12.63;8.50;;;25.80;74.90;;;;;;4951160;28;20473;-76
2023/05/21 10:48:45;;;;;;;11.45;8.07;;;25.80;70.50;;;;;;4959848;28;20036;-74
2023/05/21 10:51:22;;;;;;;8.25;6.30;;;25.90;72.70;;;;;;4961026;28;20082;-75
2023/05/21 10:54:40;;;;;;;10.52;7.75;;;25.80;73.60;;;;;;4965622;28;20034;-75
2023/05/21 10:57:35;;;;;;;13.60;9.98;;;25.90;72.80;;;;;;4939699;28;20046;-75
2023/05/21 11:00:02;;;;;;;9.70;6.38;;;26.00;71.30;;;;;;4968676;28;20121;-76
2023/05/21 11:02:28;;;;;;;12.80;9.27;;;26.10;74.40;;;;;;4963834;28;20485;-74
2023/05/21 11:05:02;;;;;;;8.85;5.50;;;26.20;70.40;;;;;;4950423;28;20065;-76
2023/05/21 11:07:52;;;;;;;11.32;8.27;;;26.40;74.40;;;;;;4968069;28;20082;-76
2023/05/21 11:10:39;;;;;;;12.88;10.00;;;26.50;71.90;;;;;;4968571;28;20050;-75
2023/05/21 11:13:25;;;;;;;10.30;7.72;;;26.60;70.90;;;;;;4968239;28;20066;-75
2023/05/21 11:15:57;;;;;;;9.63;6.85;;;26.80;71.40;;;;;;4961503;28;20020;-76
2023/05/21 11:18:23;;;;;;;10.43;7.68;;;27.00;72.30;;;;;;4959677;28;20015;-75
2023/05/21 11:20:52;;;;;;;10.25;7.40;;;27.10;71.40;;;;;;4968600;28;20137;-75
2023/05/21 11:23:19;;;;;;;16.13;11.27;;;27.20;69.40;;;;;;4957889;28;20109;-75
2023/05/21 11:26:00;;;;;;;8.43;5.45;;;27.30;68.00;;;;;;4962698;28;20027;-75
2023/05/21 11:28:33;;;;;;;9.88;6.18;;;27.20;73.40;;;;;;4959531;28;20023;-76
2023/05/21 11:31:21;;;;;;;7.05;5.10;;;27.30;72.10;;;;;;4964320;28;20123;-74
2023/05/21 11:33:47;;;;;;;10.25;8.00;;;27.40;72.60;;;;;;4967884;28;20813;-75
2023/05/21 11:36:12;;;;;;;9.70;7.43;;;27.40;69.30;;;;;;4967855;28;20562;-77
2023/05/21 11:38:38;;;;;;;9.50;6.40;;;27.50;67.20;;;;;;4963614;28;20478;-75
2023/05/21 11:41:04;;;;;;;10.55;6.55;;;27.50;72.60;;;;;;4961344;28;20481;-75
2023/05/21 11:43:30;;;;;;;15.02;9.93;;;27.70;72.00;;;;;;4962748;28;20027;-75
2023/05/21 11:45:55;;;;;;;10.32;7.28;;;27.80;67.00;;;;;;4964313;28;20086;-75
2023/05/21 11:48:24;;;;;;;13.45;10.13;;;27.60;71.60;;;;;;4962704;28;20033;-75
2023/05/21 11:50:50;;;;;;;8.48;6.15;;;27.50;68.60;;;;;;4962181;28;20126;-74
2023/05/21 11:53:15;;;;;;;10.57;7.20;;;27.50;72.20;;;;;;4961850;28;20035;-75
2023/05/21 11:55:42;;;;;;;8.18;6.00;;;27.60;72.10;;;;;;4972365;28;20023;-75
2023/05/21 11:58:15;;;;;;;12.23;7.93;;;27.70;72.50;;;;;;4946177;28;20442;-75
2023/05/21 12:00:40;;;;;;;10.65;8.50;;;27.80;70.90;;;;;;4959388;28;20023;-74
2023/05/21 12:03:07;;;;;;;10.90;6.82;;;27.80;68.90;;;;;;4957723;28;20086;-75
2023/05/21 12:05:46;;;;;;;11.93;7.75;;;28.00;70.60;;;;;;4967523;28;20055;-74
2023/05/21 12:08:20;;;;;;;12.35;10.32;;;28.10;70.20;;;;;;4978155;28;20033;-75
2023/05/21 12:10:45;;;;;;;10.60;7.50;;;28.10;67.50;;;;;;4966839;28;20019;-74
2023/05/21 12:13:14;;;;;;;16.90;10.98;;;28.20;68.80;;;;;;4975672;28;20043;-75
2023/05/21 12:15:40;;;;;;;10.32;6.97;;;28.20;67.10;;;;;;4955475;28;20110;-75
2023/05/21 12:18:05;;;;;;;11.40;8.32;;;28.10;68.90;;;;;;4974547;28;20551;-76
2023/05/21 12:20:31;;;;;;;12.20;6.65;;;28.00;71.10;;;;;;4953661;28;20030;-75
2023/05/21 12:22:58;;;;;;;9.88;7.10;;;28.20;70.40;;;;;;4969620;28;20026;-76
2023/05/21 12:25:23;;;;;;;12.00;7.72;;;28.30;70.90;;;;;;4970008;28;20105;-75
2023/05/21 12:27:57;;;;;;;10.27;6.78;;;28.30;68.80;;;;;;4968946;28;20031;-76
2023/05/21 12:30:24;;;;;;;10.43;7.47;;;28.30;70.10;;;;;;4952867;28;20113;-75
2023/05/21 12:32:50;;;;;;;11.00;8.10;;;28.30;70.20;;;;;;4968909;28;20038;-75
2023/05/21 12:35:22;;;;;;;11.30;6.28;;;28.40;68.50;;;;;;4952567;28;20671;-76
2023/05/21 12:37:49;;;;;;;9.88;6.90;;;28.40;69.30;;;;;;4950459;28;20147;-75
2023/05/21 12:40:15;;;;;;;9.73;6.45;;;28.40;69.00;;;;;;4950536;28;20054;-75
2023/05/21 12:42:43;;;;;;;10.60;6.97;;;28.60;70.80;;;;;;4952520;28;20367;-75
2023/05/21 12:45:09;;;;;;;11.45;7.03;;;28.60;69.50;;;;;;4951507;28;20595;-75